sensor_id;sensor_type;location;lat;lon;timestamp;pressure;altitude;pressure_sealevel;temperature;humidity
46079;BME280;31820;51.880;-0.518;2022-11-24T00:01:17;97917.06;;;12.47;100.00
46079;BME280;31820;51.880;-0.518;2022-11-24T00:03:44;97915.56;;;12.44;100.00
46079;BME280;31820;51.880;-0.518;2022-11-24T00:06:11;97916.41;;;12.45;100.00
46079;BME280;31820;51.880;-0.518;2022-11-24T00:08:38;97922.84;;;12.44;100.00
46079;BME280;31820;51.880;-0.518;2022-11-24T00:11:10;97930.94;;;12.44;100.00
46079;BME280;31820;51.880;-0.518;2022-11-24T00:13:36;97919.31;;;12.43;100.00
46079;BME280;31820;51.880;-0.518;2022-11-24T00:16:14;97913.91;;;12.43;100.00
46079;BME280;31820;51.880;-0.518;2022-11-24T00:18:40;97906.81;;;12.42;100.00
46079;BME280;31820;51.880;-0.518;2022-11-24T00:21:07;97906.00;;;12.42;100.00
46079;BME280;31820;51.880;-0.518;2022-11-24T00:23:33;97913.28;;;12.41;100.00
46079;BME280;31820;51.880;-0.518;2022-11-24T00:26:26;97926.13;;;12.39;100.00
46079;BME280;31820;51.880;-0.518;2022-11-24T00:28:54;97930.69;;;12.39;100.00
46079;BME280;31820;51.880;-0.518;2022-11-24T00:31:21;97933.53;;;12.52;100.00
46079;BME280;31820;51.880;-0.518;2022-11-24T00:33:48;97937.47;;;12.49;100.00
46079;BME280;31820;51.880;-0.518;2022-11-24T00:36:15;97933.28;;;12.47;100.00
46079;BME280;31820;51.880;-0.518;2022-11-24T00:38:41;97947.44;;;12.49;100.00
46079;BME280;31820;51.880;-0.518;2022-11-24T00:41:07;97950.69;;;12.44;100.00
46079;BME280;31820;51.880;-0.518;2022-11-24T00:43:32;97955.28;;;12.44;100.00
46079;BME280;31820;51.880;-0.518;2022-11-24T00:45:58;97961.50;;;12.44;100.00
46079;BME280;31820;51.880;-0.518;2022-11-24T00:48:23;97973.38;;;12.43;100.00
46079;BME280;31820;51.880;-0.518;2022-11-24T00:51:00;97983.13;;;12.44;100.00
46079;BME280;31820;51.880;-0.518;2022-11-24T00:53:26;97970.41;;;12.38;100.00
46079;BME280;31820;51.880;-0.518;2022-11-24T00:55:52;97986.25;;;12.41;100.00
46079;BME280;31820;51.880;-0.518;2022-11-24T00:58:18;97987.09;;;12.42;100.00
46079;BME280;31820;51.880;-0.518;2022-11-24T01:00:47;97996.22;;;12.41;100.00
46079;BME280;31820;51.880;-0.518;2022-11-24T01:03:13;98011.59;;;12.40;100.00
46079;BME280;31820;51.880;-0.518;2022-11-24T01:05:39;98017.84;;;12.41;100.00
46079;BME280;31820;51.880;-0.518;2022-11-24T01:08:05;98018.03;;;12.39;100.00
46079;BME280;31820;51.880;-0.518;2022-11-24T01:10:31;98009.91;;;12.39;100.00
46079;BME280;31820;51.880;-0.518;2022-11-24T01:12:57;98017.19;;;12.39;100.00
46079;BME280;31820;51.880;-0.518;2022-11-24T01:15:23;98019.06;;;12.38;100.00
46079;BME280;31820;51.880;-0.518;2022-11-24T01:17:48;98020.09;;;12.37;100.00
46079;BME280;31820;51.880;-0.518;2022-11-24T01:20:14;98016.75;;;12.35;100.00
46079;BME280;31820;51.880;-0.518;2022-11-24T01:22:40;98013.66;;;12.38;100.00
46079;BME280;31820;51.880;-0.518;2022-11-24T01:25:10;98013.19;;;12.35;100.00
46079;BME280;31820;51.880;-0.518;2022-11-24T01:27:36;98011.34;;;12.35;100.00
46079;BME280;31820;51.880;-0.518;2022-11-24T01:30:04;98022.16;;;12.35;100.00
46079;BME280;31820;51.880;-0.518;2022-11-24T01:32:30;98032.09;;;12.35;100.00
46079;BME280;31820;51.880;-0.518;2022-11-24T01:35:01;98027.75;;;12.34;100.00
46079;BME280;31820;51.880;-0.518;2022-11-24T01:37:26;98035.66;;;12.35;100.00
46079;BME280;31820;51.880;-0.518;2022-11-24T01:39:52;98041.44;;;12.32;100.00
46079;BME280;31820;51.880;-0.518;2022-11-24T01:42:17;98051.22;;;12.33;100.00
46079;BME280;31820;51.880;-0.518;2022-11-24T01:44:42;98050.56;;;12.31;100.00
46079;BME280;31820;51.880;-0.518;2022-11-24T01:49:48;98073.00;;;12.31;100.00
46079;BME280;31820;51.880;-0.518;2022-11-24T01:52:28;98072.56;;;12.28;100.00
46079;BME280;31820;51.880;-0.518;2022-11-24T01:55:01;98078.16;;;12.26;100.00
46079;BME280;31820;51.880;-0.518;2022-11-24T01:57:34;98076.84;;;12.22;100.00
46079;BME280;31820;51.880;-0.518;2022-11-24T02:00:07;98078.97;;;12.27;100.00
46079;BME280;31820;51.880;-0.518;2022-11-24T02:02:34;98071.91;;;12.26;100.00
46079;BME280;31820;51.880;-0.518;2022-11-24T02:05:04;98082.72;;;12.26;100.00
46079;BME280;31820;51.880;-0.518;2022-11-24T02:07:32;98093.53;;;12.26;100.00
46079;BME280;31820;51.880;-0.518;2022-11-24T02:10:05;98093.53;;;12.26;100.00
46079;BME280;31820;51.880;-0.518;2022-11-24T02:12:33;98093.72;;;12.24;100.00
46079;BME280;31820;51.880;-0.518;2022-11-24T02:14:59;98092.88;;;12.24;100.00
46079;BME280;31820;51.880;-0.518;2022-11-24T02:17:25;98097.44;;;12.23;100.00
46079;BME280;31820;51.880;-0.518;2022-11-24T02:19:59;98101.16;;;12.22;100.00
46079;BME280;31820;51.880;-0.518;2022-11-24T02:25:07;98110.84;;;12.31;100.00
46079;BME280;31820;51.880;-0.518;2022-11-24T02:27:36;98117.00;;;12.25;100.00
46079;BME280;31820;51.880;-0.518;2022-11-24T02:30:02;98119.06;;;12.23;100.00
46079;BME280;31820;51.880;-0.518;2022-11-24T02:32:29;98130.06;;;12.22;100.00
46079;BME280;31820;51.880;-0.518;2022-11-24T02:35:00;98152.72;;;12.21;100.00
46079;BME280;31820;51.880;-0.518;2022-11-24T02:37:26;98157.25;;;12.20;100.00
46079;BME280;31820;51.880;-0.518;2022-11-24T02:39:51;98161.84;;;12.20;100.00
46079;BME280;31820;51.880;-0.518;2022-11-24T02:42:17;98154.75;;;12.19;100.00
46079;BME280;31820;51.880;-0.518;2022-11-24T02:44:46;98163.72;;;12.19;100.00
46079;BME280;31820;51.880;-0.518;2022-11-24T02:47:13;98178.06;;;12.20;100.00
46079;BME280;31820;51.880;-0.518;2022-11-24T02:49:39;98169.28;;;12.18;100.00
46079;BME280;31820;51.880;-0.518;2022-11-24T02:52:06;98178.22;;;12.18;100.00
46079;BME280;31820;51.880;-0.518;2022-11-24T02:54:32;98187.84;;;12.21;100.00
46079;BME280;31820;51.880;-0.518;2022-11-24T02:56:57;98189.03;;;12.18;100.00
46079;BME280;31820;51.880;-0.518;2022-11-24T02:59:23;98190.91;;;12.18;100.00
46079;BME280;31820;51.880;-0.518;2022-11-24T03:01:48;98200.97;;;12.24;100.00
46079;BME280;31820;51.880;-0.518;2022-11-24T03:04:14;98199.50;;;12.21;100.00
46079;BME280;31820;51.880;-0.518;2022-11-24T03:06:40;98202.75;;;12.17;100.00
46079;BME280;31820;51.880;-0.518;2022-11-24T03:09:05;98199.19;;;12.16;100.00
46079;BME280;31820;51.880;-0.518;2022-11-24T03:11:31;98198.34;;;12.16;100.00
46079;BME280;31820;51.880;-0.518;2022-11-24T03:13:57;98188.09;;;12.11;100.00
46079;BME280;31820;51.880;-0.518;2022-11-24T03:16:22;98190.78;;;12.11;100.00
46079;BME280;31820;51.880;-0.518;2022-11-24T03:18:50;98195.81;;;12.14;100.00
46079;BME280;31820;51.880;-0.518;2022-11-24T03:21:15;98200.41;;;12.13;100.00
46079;BME280;31820;51.880;-0.518;2022-11-24T03:23:41;98206.81;;;12.12;100.00
46079;BME280;31820;51.880;-0.518;2022-11-24T03:26:13;98205.88;;;12.05;100.00
46079;BME280;31820;51.880;-0.518;2022-11-24T03:28:39;98215.97;;;12.11;100.00
46079;BME280;31820;51.880;-0.518;2022-11-24T03:31:06;98221.38;;;12.11;100.00
46079;BME280;31820;51.880;-0.518;2022-11-24T03:33:33;98228.63;;;12.11;100.00
46079;BME280;31820;51.880;-0.518;2022-11-24T03:35:58;98229.47;;;12.11;100.00
46079;BME280;31820;51.880;-0.518;2022-11-24T03:38:24;98230.47;;;12.10;100.00
46079;BME280;31820;51.880;-0.518;2022-11-24T03:40:49;98224.25;;;12.10;100.00
46079;BME280;31820;51.880;-0.518;2022-11-24T03:43:15;98216.97;;;12.10;100.00
46079;BME280;31820;51.880;-0.518;2022-11-24T03:45:44;98224.44;;;12.08;100.00
46079;BME280;31820;51.880;-0.518;2022-11-24T03:48:10;98229.66;;;12.10;100.00
46079;BME280;31820;51.880;-0.518;2022-11-24T03:50:35;98237.75;;;12.10;100.00
46079;BME280;31820;51.880;-0.518;2022-11-24T03:53:01;98239.78;;;12.08;100.00
46079;BME280;31820;51.880;-0.518;2022-11-24T03:55:26;98240.94;;;12.13;100.00
46079;BME280;31820;51.880;-0.518;2022-11-24T03:57:52;98248.03;;;12.15;100.00
46079;BME280;31820;51.880;-0.518;2022-11-24T04:00:17;98255.28;;;12.14;100.00
46079;BME280;31820;51.880;-0.518;2022-11-24T04:02:43;98256.50;;;12.11;100.00
46079;BME280;31820;51.880;-0.518;2022-11-24T04:05:09;98263.91;;;12.09;100.00
46079;BME280;31820;51.880;-0.518;2022-11-24T04:07:34;98266.63;;;12.09;100.00
46079;BME280;31820;51.880;-0.518;2022-11-24T04:10:00;98274.00;;;12.16;100.00
46079;BME280;31820;51.880;-0.518;2022-11-24T04:12:25;98274.72;;;12.09;100.00
46079;BME280;31820;51.880;-0.518;2022-11-24T04:15:14;98276.78;;;12.07;100.00
46079;BME280;31820;51.880;-0.518;2022-11-24T04:17:40;98286.56;;;12.08;100.00
46079;BME280;31820;51.880;-0.518;2022-11-24T04:20:06;98293.00;;;12.07;100.00
46079;BME280;31820;51.880;-0.518;2022-11-24T04:22:32;98291.28;;;12.06;100.00
46079;BME280;31820;51.880;-0.518;2022-11-24T04:24:58;98294.00;;;12.06;100.00
46079;BME280;31820;51.880;-0.518;2022-11-24T04:27:23;98308.53;;;12.05;100.00
46079;BME280;31820;51.880;-0.518;2022-11-24T04:29:49;98310.38;;;12.05;100.00
46079;BME280;31820;51.880;-0.518;2022-11-24T04:32:16;98320.38;;;12.04;100.00
46079;BME280;31820;51.880;-0.518;2022-11-24T04:34:42;98319.34;;;12.05;100.00
46079;BME280;31820;51.880;-0.518;2022-11-24T04:37:07;98313.44;;;12.02;100.00
46079;BME280;31820;51.880;-0.518;2022-11-24T04:39:33;98306.84;;;12.04;100.00
46079;BME280;31820;51.880;-0.518;2022-11-24T04:41:58;98310.81;;;12.17;100.00
46079;BME280;31820;51.880;-0.518;2022-11-24T04:44:24;98310.88;;;12.08;100.00
46079;BME280;31820;51.880;-0.518;2022-11-24T04:46:49;98312.91;;;12.06;100.00
46079;BME280;31820;51.880;-0.518;2022-11-24T04:49:15;98303.50;;;12.02;100.00
46079;BME280;31820;51.880;-0.518;2022-11-24T04:51:41;98309.91;;;12.01;100.00
46079;BME280;31820;51.880;-0.518;2022-11-24T04:54:09;98317.66;;;12.04;100.00
46079;BME280;31820;51.880;-0.518;2022-11-24T04:56:34;98322.41;;;12.02;100.00
46079;BME280;31820;51.880;-0.518;2022-11-24T04:59:00;98324.56;;;12.07;100.00
46079;BME280;31820;51.880;-0.518;2022-11-24T05:01:26;98329.97;;;12.07;100.00
46079;BME280;31820;51.880;-0.518;2022-11-24T05:03:53;98327.28;;;12.07;100.00
46079;BME280;31820;51.880;-0.518;2022-11-24T05:06:19;98330.81;;;12.07;100.00
46079;BME280;31820;51.880;-0.518;2022-11-24T05:08:49;98335.38;;;12.07;100.00
46079;BME280;31820;51.880;-0.518;2022-11-24T05:11:15;98331.81;;;12.06;100.00
46079;BME280;31820;51.880;-0.518;2022-11-24T05:13:40;98338.09;;;12.07;100.00
46079;BME280;31820;51.880;-0.518;2022-11-24T05:16:06;98343.66;;;12.05;100.00
46079;BME280;31820;51.880;-0.518;2022-11-24T05:18:32;98336.56;;;12.04;100.00
46079;BME280;31820;51.880;-0.518;2022-11-24T05:20:58;98340.28;;;12.03;100.00
46079;BME280;31820;51.880;-0.518;2022-11-24T05:23:23;98353.63;;;12.05;100.00
46079;BME280;31820;51.880;-0.518;2022-11-24T05:25:50;98354.66;;;12.04;100.00
46079;BME280;31820;51.880;-0.518;2022-11-24T05:28:16;98358.38;;;12.03;100.00
46079;BME280;31820;51.880;-0.518;2022-11-24T05:30:42;98353.44;;;12.06;100.00
46079;BME280;31820;51.880;-0.518;2022-11-24T05:33:11;98365.28;;;12.05;100.00
46079;BME280;31820;51.880;-0.518;2022-11-24T05:35:40;98359.38;;;12.02;100.00
46079;BME280;31820;51.880;-0.518;2022-11-24T05:38:05;98360.22;;;12.02;100.00
46079;BME280;31820;51.880;-0.518;2022-11-24T05:40:31;98363.94;;;12.01;100.00
46079;BME280;31820;51.880;-0.518;2022-11-24T05:42:56;98369.34;;;12.01;100.00
46079;BME280;31820;51.880;-0.518;2022-11-24T05:45:22;98370.38;;;12.00;100.00
46079;BME280;31820;51.880;-0.518;2022-11-24T05:47:49;98373.25;;;11.99;100.00
46079;BME280;31820;51.880;-0.518;2022-11-24T05:50:17;98372.56;;;11.97;100.00
46079;BME280;31820;51.880;-0.518;2022-11-24T05:52:43;98378.84;;;11.97;100.00
46079;BME280;31820;51.880;-0.518;2022-11-24T05:55:10;98382.91;;;11.93;100.00
46079;BME280;31820;51.880;-0.518;2022-11-24T05:57:36;98392.53;;;11.96;100.00
46079;BME280;31820;51.880;-0.518;2022-11-24T06:00:04;98379.53;;;11.91;100.00
46079;BME280;31820;51.880;-0.518;2022-11-24T06:02:31;98385.44;;;11.94;100.00
46079;BME280;31820;51.880;-0.518;2022-11-24T06:04:56;98389.31;;;11.92;100.00
46079;BME280;31820;51.880;-0.518;2022-11-24T06:07:22;98401.81;;;11.93;100.00
46079;BME280;31820;51.880;-0.518;2022-11-24T06:09:47;98408.22;;;11.92;100.00
46079;BME280;31820;51.880;-0.518;2022-11-24T06:12:13;98408.22;;;11.92;100.00
46079;BME280;31820;51.880;-0.518;2022-11-24T06:14:38;98417.63;;;12.04;100.00
46079;BME280;31820;51.880;-0.518;2022-11-24T06:17:04;98417.44;;;12.06;100.00
46079;BME280;31820;51.880;-0.518;2022-11-24T06:19:30;98415.09;;;12.03;100.00
46079;BME280;31820;51.880;-0.518;2022-11-24T06:21:56;98425.72;;;12.04;100.00
46079;BME280;31820;51.880;-0.518;2022-11-24T06:24:22;98428.97;;;12.00;100.00
46079;BME280;31820;51.880;-0.518;2022-11-24T06:26:47;98425.78;;;11.96;100.00
46079;BME280;31820;51.880;-0.518;2022-11-24T06:29:13;98432.19;;;11.95;100.00
46079;BME280;31820;51.880;-0.518;2022-11-24T06:31:39;98428.50;;;11.88;100.00
46079;BME280;31820;51.880;-0.518;2022-11-24T06:34:05;98431.53;;;11.93;100.00
46079;BME280;31820;51.880;-0.518;2022-11-24T06:36:32;98440.63;;;12.00;100.00
46079;BME280;31820;51.880;-0.518;2022-11-24T06:39:00;98432.31;;;12.02;100.00
46079;BME280;31820;51.880;-0.518;2022-11-24T06:41:26;98432.53;;;11.92;100.00
46079;BME280;31820;51.880;-0.518;2022-11-24T06:43:52;98430.84;;;11.91;100.00
46079;BME280;31820;51.880;-0.518;2022-11-24T06:46:17;98432.69;;;11.90;100.00
46079;BME280;31820;51.880;-0.518;2022-11-24T06:48:43;98442.00;;;11.88;100.00
46079;BME280;31820;51.880;-0.518;2022-11-24T06:51:10;98447.75;;;11.85;100.00
46079;BME280;31820;51.880;-0.518;2022-11-24T06:53:38;98458.56;;;11.85;100.00
46079;BME280;31820;51.880;-0.518;2022-11-24T06:56:06;98449.59;;;11.84;100.00
46079;BME280;31820;51.880;-0.518;2022-11-24T06:58:32;98453.81;;;11.87;100.00
46079;BME280;31820;51.880;-0.518;2022-11-24T07:00:58;98456.50;;;11.87;100.00
46079;BME280;31820;51.880;-0.518;2022-11-24T07:03:23;98452.97;;;11.86;100.00
46079;BME280;31820;51.880;-0.518;2022-11-24T07:05:55;98456.50;;;11.87;100.00
46079;BME280;31820;51.880;-0.518;2022-11-24T07:08:20;98461.25;;;11.85;100.00
46079;BME280;31820;51.880;-0.518;2022-11-24T07:10:46;98458.56;;;11.85;100.00
46079;BME280;31820;51.880;-0.518;2022-11-24T07:13:11;98465.97;;;11.83;100.00
46079;BME280;31820;51.880;-0.518;2022-11-24T07:15:37;98469.69;;;11.82;100.00
46079;BME280;31820;51.880;-0.518;2022-11-24T07:18:02;98472.22;;;11.83;100.00
46079;BME280;31820;51.880;-0.518;2022-11-24T07:20:28;98476.59;;;11.84;100.00
46079;BME280;31820;51.880;-0.518;2022-11-24T07:22:54;98464.81;;;11.77;100.00
46079;BME280;31820;51.880;-0.518;2022-11-24T07:25:20;98482.00;;;11.84;100.00
46079;BME280;31820;51.880;-0.518;2022-11-24T07:27:46;98483.22;;;11.82;100.00
46079;BME280;31820;51.880;-0.518;2022-11-24T07:30:11;98484.88;;;11.83;100.00
46079;BME280;31820;51.880;-0.518;2022-11-24T07:32:37;98485.22;;;11.80;100.00
46079;BME280;31820;51.880;-0.518;2022-11-24T07:35:03;98500.41;;;11.81;100.00
46079;BME280;31820;51.880;-0.518;2022-11-24T07:37:28;98504.81;;;11.82;100.00
46079;BME280;31820;51.880;-0.518;2022-11-24T07:39:54;98503.94;;;11.81;100.00
46079;BME280;31820;51.880;-0.518;2022-11-24T07:42:19;98503.94;;;11.81;100.00
46079;BME280;31820;51.880;-0.518;2022-11-24T07:44:45;98503.13;;;11.81;100.00
46079;BME280;31820;51.880;-0.518;2022-11-24T07:47:10;98492.66;;;11.77;100.00
46079;BME280;31820;51.880;-0.518;2022-11-24T07:49:36;98486.91;;;11.81;100.00
46079;BME280;31820;51.880;-0.518;2022-11-24T07:52:01;98494.00;;;11.82;100.00
46079;BME280;31820;51.880;-0.518;2022-11-24T07:54:27;98495.19;;;11.79;100.00
46079;BME280;31820;51.880;-0.518;2022-11-24T07:56:52;98496.22;;;11.78;100.00
46079;BME280;31820;51.880;-0.518;2022-11-24T07:59:17;98494.53;;;11.77;100.00
46079;BME280;31820;51.880;-0.518;2022-11-24T08:01:43;98486.78;;;11.74;100.00
46079;BME280;31820;51.880;-0.518;2022-11-24T08:04:08;98490.44;;;11.89;100.00
46079;BME280;31820;51.880;-0.518;2022-11-24T08:06:34;98488.25;;;11.85;100.00
46079;BME280;31820;51.880;-0.518;2022-11-24T08:08:59;98482.84;;;11.85;100.00
46079;BME280;31820;51.880;-0.518;2022-11-24T08:11:26;98488.75;;;11.88;100.00
46079;BME280;31820;51.880;-0.518;2022-11-24T08:13:51;98485.56;;;11.93;100.00
46079;BME280;31820;51.880;-0.518;2022-11-24T08:16:18;98474.41;;;11.96;100.00
46079;BME280;31820;51.880;-0.518;2022-11-24T08:18:52;98477.25;;;12.03;100.00
46079;BME280;31820;51.880;-0.518;2022-11-24T08:21:18;98474.00;;;12.07;100.00
46079;BME280;31820;51.880;-0.518;2022-11-24T08:23:44;98453.91;;;12.10;100.00
46079;BME280;31820;51.880;-0.518;2022-11-24T08:26:12;98457.41;;;12.19;100.00
46079;BME280;31820;51.880;-0.518;2022-11-24T08:28:40;98455.50;;;12.27;100.00
46079;BME280;31820;51.880;-0.518;2022-11-24T08:31:08;98447.69;;;12.33;100.00
46079;BME280;31820;51.880;-0.518;2022-11-24T08:33:34;98455.75;;;12.41;100.00
46079;BME280;31820;51.880;-0.518;2022-11-24T08:36:13;98452.47;;;12.54;100.00
46079;BME280;31820;51.880;-0.518;2022-11-24T08:38:39;98439.44;;;12.57;100.00
46079;BME280;31820;51.880;-0.518;2022-11-24T08:41:10;98440.75;;;12.61;100.00
46079;BME280;31820;51.880;-0.518;2022-11-24T08:43:37;98434.81;;;12.66;100.00
46079;BME280;31820;51.880;-0.518;2022-11-24T08:46:04;98449.13;;;12.75;100.00
46079;BME280;31820;51.880;-0.518;2022-11-24T08:48:30;98448.75;;;12.78;100.00
46079;BME280;31820;51.880;-0.518;2022-11-24T08:50:56;98463.59;;;12.82;100.00
46079;BME280;31820;51.880;-0.518;2022-11-24T08:53:22;98457.94;;;12.92;100.00
46079;BME280;31820;51.880;-0.518;2022-11-24T08:55:48;98477.00;;;12.98;100.00
46079;BME280;31820;51.880;-0.518;2022-11-24T08:58:13;98482.53;;;13.05;100.00
46079;BME280;31820;51.880;-0.518;2022-11-24T09:00:39;98479.09;;;13.11;100.00
46079;BME280;31820;51.880;-0.518;2022-11-24T09:03:05;98475.66;;;13.17;100.00
46079;BME280;31820;51.880;-0.518;2022-11-24T09:05:30;98476.31;;;13.19;100.00
46079;BME280;31820;51.880;-0.518;2022-11-24T09:07:57;98481.66;;;13.28;100.00
46079;BME280;31820;51.880;-0.518;2022-11-24T09:10:22;98483.81;;;13.32;100.00
46079;BME280;31820;51.880;-0.518;2022-11-24T09:12:47;98487.00;;;13.36;100.00
46079;BME280;31820;51.880;-0.518;2022-11-24T09:15:15;98483.75;;;13.41;100.00
46079;BME280;31820;51.880;-0.518;2022-11-24T09:17:41;98482.91;;;13.40;100.00
46079;BME280;31820;51.880;-0.518;2022-11-24T09:20:08;98470.03;;;13.42;100.00
46079;BME280;31820;51.880;-0.518;2022-11-24T09:22:33;98464.63;;;13.42;100.00
46079;BME280;31820;51.880;-0.518;2022-11-24T09:24:59;98461.63;;;13.37;100.00
46079;BME280;31820;51.880;-0.518;2022-11-24T09:27:25;98459.19;;;13.42;100.00
46079;BME280;31820;51.880;-0.518;2022-11-24T09:29:51;98464.44;;;13.44;100.00
46079;BME280;31820;51.880;-0.518;2022-11-24T09:32:17;98461.91;;;13.42;100.00
46079;BME280;31820;51.880;-0.518;2022-11-24T09:34:42;98471.06;;;13.41;100.00
46079;BME280;31820;51.880;-0.518;2022-11-24T09:37:08;98481.22;;;13.39;100.00
46079;BME280;31820;51.880;-0.518;2022-11-24T09:39:33;98464.97;;;13.39;100.00
46079;BME280;31820;51.880;-0.518;2022-11-24T09:42:36;98464.72;;;13.49;100.00
46079;BME280;31820;51.880;-0.518;2022-11-24T09:48:25;98445.84;;;13.41;100.00
46079;BME280;31820;51.880;-0.518;2022-11-24T09:50:56;98446.81;;;13.48;100.00
46079;BME280;31820;51.880;-0.518;2022-11-24T09:53:42;98457.25;;;13.51;100.00
46079;BME280;31820;51.880;-0.518;2022-11-24T09:56:18;98449.22;;;13.43;100.00
46079;BME280;31820;51.880;-0.518;2022-11-24T09:58:50;98438.94;;;13.38;100.00
46079;BME280;31820;51.880;-0.518;2022-11-24T10:01:28;98436.63;;;13.35;100.00
46079;BME280;31820;51.880;-0.518;2022-11-24T10:03:54;98434.81;;;13.42;100.00
46079;BME280;31820;51.880;-0.518;2022-11-24T10:06:27;98431.09;;;13.43;100.00
46079;BME280;31820;51.880;-0.518;2022-11-24T10:09:12;98431.28;;;13.42;100.00
46079;BME280;31820;51.880;-0.518;2022-11-24T10:28:53;98410.72;;;13.32;100.00
46079;BME280;31820;51.880;-0.518;2022-11-24T10:31:37;98419.50;;;13.34;100.00
46079;BME280;31820;51.880;-0.518;2022-11-24T10:34:36;98417.66;;;13.35;100.00
46079;BME280;31820;51.880;-0.518;2022-11-24T10:37:06;98414.28;;;13.33;100.00
46079;BME280;31820;51.880;-0.518;2022-11-24T10:42:31;98406.91;;;13.27;100.00
46079;BME280;31820;51.880;-0.518;2022-11-24T10:45:19;98409.59;;;13.27;100.00
46079;BME280;31820;51.880;-0.518;2022-11-24T10:47:47;98406.03;;;13.26;100.00
46079;BME280;31820;51.880;-0.518;2022-11-24T10:50:20;98400.16;;;13.23;100.00
46079;BME280;31820;51.880;-0.518;2022-11-24T10:52:55;98388.50;;;13.22;100.00
46079;BME280;31820;51.880;-0.518;2022-11-24T10:55:24;98380.56;;;13.20;100.00
46079;BME280;31820;51.880;-0.518;2022-11-24T10:57:49;98388.69;;;13.20;100.00
46079;BME280;31820;51.880;-0.518;2022-11-24T11:02:48;98396.31;;;13.17;100.00
46079;BME280;31820;51.880;-0.518;2022-11-24T11:05:38;98389.69;;;13.19;100.00
46079;BME280;31820;51.880;-0.518;2022-11-24T11:08:22;98388.00;;;13.18;100.00
46079;BME280;31820;51.880;-0.518;2022-11-24T11:10:51;98382.78;;;13.17;100.00
46079;BME280;31820;51.880;-0.518;2022-11-24T11:13:31;98382.13;;;13.15;100.00
46079;BME280;31820;51.880;-0.518;2022-11-24T11:15:57;98376.06;;;13.13;100.00
46079;BME280;31820;51.880;-0.518;2022-11-24T11:18:31;98380.44;;;13.14;100.00
46079;BME280;31820;51.880;-0.518;2022-11-24T11:20:59;98387.72;;;13.13;100.00
46079;BME280;31820;51.880;-0.518;2022-11-24T11:23:32;98382.50;;;13.12;100.00
46079;BME280;31820;51.880;-0.518;2022-11-24T11:29:12;98361.69;;;13.12;100.00
46079;BME280;31820;51.880;-0.518;2022-11-24T11:31:38;98352.91;;;13.10;100.00
46079;BME280;31820;51.880;-0.518;2022-11-24T11:34:14;98355.63;;;13.10;100.00
46079;BME280;31820;51.880;-0.518;2022-11-24T11:36:43;98333.97;;;13.10;100.00
46079;BME280;31820;51.880;-0.518;2022-11-24T11:44:46;98307.53;;;13.12;100.00
46079;BME280;31820;51.880;-0.518;2022-11-24T11:47:20;98306.53;;;13.13;100.00
46079;BME280;31820;51.880;-0.518;2022-11-24T11:49:48;98294.88;;;13.13;100.00
46079;BME280;31820;51.880;-0.518;2022-11-24T12:00:51;98270.22;;;13.23;100.00
46079;BME280;31820;51.880;-0.518;2022-11-24T12:16:37;98234.03;;;13.09;100.00
46079;BME280;31820;51.880;-0.518;2022-11-24T12:22:00;98220.03;;;13.05;100.00
46079;BME280;31820;51.880;-0.518;2022-11-24T12:27:17;98205.00;;;13.02;100.00
46079;BME280;31820;51.880;-0.518;2022-11-24T12:29:58;98200.44;;;13.03;100.00
46079;BME280;31820;51.880;-0.518;2022-11-24T12:35:56;98190.91;;;13.07;100.00
46079;BME280;31820;51.880;-0.518;2022-11-24T12:38:17;98189.91;;;13.08;100.00
46079;BME280;31820;51.880;-0.518;2022-11-24T12:43:53;98172.16;;;13.06;100.00
46079;BME280;31820;51.880;-0.518;2022-11-24T12:51:47;98156.38;;;13.09;100.00
46079;BME280;31820;51.880;-0.518;2022-11-24T12:54:17;98158.44;;;13.07;100.00
46079;BME280;31820;51.880;-0.518;2022-11-24T12:57:04;98153.22;;;13.06;100.00
46079;BME280;31820;51.880;-0.518;2022-11-24T12:59:56;98156.38;;;13.09;100.00
46079;BME280;31820;51.880;-0.518;2022-11-24T13:07:54;98131.94;;;13.17;100.00
46079;BME280;31820;51.880;-0.518;2022-11-24T13:10:25;98128.75;;;13.14;100.00
46079;BME280;31820;51.880;-0.518;2022-11-24T13:13:01;98143.50;;;13.11;100.00
46079;BME280;31820;51.880;-0.518;2022-11-24T13:15:28;98136.41;;;13.10;100.00
46079;BME280;31820;51.880;-0.518;2022-11-24T13:17:56;98133.06;;;13.08;100.00
46079;BME280;31820;51.880;-0.518;2022-11-24T13:20:23;98135.09;;;13.06;100.00
46079;BME280;31820;51.880;-0.518;2022-11-24T13:23:00;98130.09;;;13.03;100.00
46079;BME280;31820;51.880;-0.518;2022-11-24T13:25:29;98130.09;;;13.03;100.00
46079;BME280;31820;51.880;-0.518;2022-11-24T13:27:57;98136.53;;;13.02;100.00
46079;BME280;31820;51.880;-0.518;2022-11-24T13:35:37;98118.22;;;13.04;100.00
46079;BME280;31820;51.880;-0.518;2022-11-24T13:39:15;98123.63;;;13.04;100.00
46079;BME280;31820;51.880;-0.518;2022-11-24T13:41:10;98110.97;;;13.05;100.00
46079;BME280;31820;51.880;-0.518;2022-11-24T13:43:36;98104.56;;;13.12;100.00
46079;BME280;31820;51.880;-0.518;2022-11-24T13:46:02;98095.94;;;13.02;100.00
46079;BME280;31820;51.880;-0.518;2022-11-24T13:53:41;98088.84;;;13.01;100.00
46079;BME280;31820;51.880;-0.518;2022-11-24T13:58:38;98086.31;;;12.99;100.00
46079;BME280;31820;51.880;-0.518;2022-11-24T14:03:44;98064.56;;;13.08;100.00
46079;BME280;31820;51.880;-0.518;2022-11-24T14:06:26;98071.66;;;13.09;100.00
46079;BME280;31820;51.880;-0.518;2022-11-24T14:08:53;98073.72;;;13.07;100.00
46079;BME280;31820;51.880;-0.518;2022-11-24T14:11:20;98055.81;;;13.06;100.00
46079;BME280;31820;51.880;-0.518;2022-11-24T14:13:45;98064.75;;;13.06;100.00
46079;BME280;31820;51.880;-0.518;2022-11-24T14:16:13;98059.34;;;13.06;100.00
46079;BME280;31820;51.880;-0.518;2022-11-24T14:18:41;98048.50;;;13.06;100.00
46079;BME280;31820;51.880;-0.518;2022-11-24T14:21:37;98043.56;;;13.10;100.00
46079;BME280;31820;51.880;-0.518;2022-11-24T14:24:26;98039.00;;;13.10;100.00
46079;BME280;31820;51.880;-0.518;2022-11-24T14:26:54;98027.16;;;13.11;100.00